createdAt,value
2018-09-27T00:02:19.896Z,99.90
2018-09-27T00:04:48.094Z,99.90
2018-09-27T00:07:16.288Z,99.90
2018-09-27T00:09:44.457Z,99.90
2018-09-27T00:12:12.646Z,99.90
2018-09-27T00:14:40.825Z,99.90
2018-09-27T00:17:09.025Z,99.90
2018-09-27T00:19:37.288Z,99.90
2018-09-27T00:22:05.393Z,99.90
2018-09-27T00:24:33.600Z,99.90
2018-09-27T00:27:01.824Z,99.90
2018-09-27T00:29:30.044Z,99.90
2018-09-27T00:31:58.233Z,99.90
2018-09-27T00:34:26.439Z,99.90
2018-09-27T00:36:54.612Z,99.90
2018-09-27T00:39:22.793Z,99.90
2018-09-27T00:41:50.989Z,99.90
2018-09-27T00:44:19.191Z,99.90
2018-09-27T00:46:47.370Z,99.90
2018-09-27T00:49:15.605Z,99.90
2018-09-27T00:51:43.770Z,99.90
2018-09-27T00:54:11.987Z,99.90
2018-09-27T00:56:40.160Z,99.90
2018-09-27T00:59:08.344Z,99.90
2018-09-27T01:01:36.520Z,99.90
2018-09-27T01:04:04.706Z,99.90
2018-09-27T01:06:32.870Z,99.90
2018-09-27T01:09:01.041Z,99.90
2018-09-27T01:11:29.213Z,99.90
2018-09-27T01:13:57.441Z,99.90
2018-09-27T01:16:25.640Z,99.90
2018-09-27T01:18:53.833Z,99.90
2018-09-27T01:21:22.013Z,99.90
2018-09-27T01:23:50.188Z,99.90
2018-09-27T01:26:18.425Z,99.90
2018-09-27T01:28:46.625Z,99.90
2018-09-27T01:31:14.881Z,99.90
2018-09-27T01:33:43.124Z,99.90
2018-09-27T01:36:11.393Z,99.90
2018-09-27T01:38:39.617Z,99.90
2018-09-27T01:41:08.201Z,99.90
2018-09-27T01:43:36.376Z,99.90
2018-09-27T01:46:04.812Z,99.90
2018-09-27T01:48:33.022Z,99.90
2018-09-27T01:51:01.187Z,99.90
2018-09-27T01:53:29.408Z,99.90
2018-09-27T01:55:57.616Z,99.90
2018-09-27T01:58:25.789Z,99.90
2018-09-27T02:00:54.006Z,99.90
2018-09-27T02:03:22.176Z,99.90
2018-09-27T02:05:50.385Z,99.90
2018-09-27T02:08:18.601Z,99.90
2018-09-27T02:10:46.782Z,99.90
2018-09-27T02:13:14.956Z,99.90
2018-09-27T02:15:43.168Z,99.90
2018-09-27T02:18:11.421Z,99.90
2018-09-27T02:20:39.709Z,99.90
2018-09-27T02:23:07.901Z,99.90
2018-09-27T02:25:36.104Z,99.90
2018-09-27T02:28:04.329Z,99.90
2018-09-27T02:30:32.505Z,99.90
2018-09-27T02:33:00.669Z,99.90
2018-09-27T02:35:28.890Z,99.90
2018-09-27T02:37:57.080Z,99.90
2018-09-27T02:40:25.283Z,99.90
2018-09-27T02:42:53.461Z,99.90
2018-09-27T02:45:21.644Z,99.90
2018-09-27T02:47:49.804Z,99.90
2018-09-27T02:50:18.005Z,99.90
2018-09-27T02:52:46.180Z,99.90
2018-09-27T02:55:14.340Z,99.90
2018-09-27T02:57:42.522Z,99.90
2018-09-27T03:00:10.735Z,99.90
2018-09-27T03:02:38.916Z,99.90
2018-09-27T03:05:07.105Z,99.90
2018-09-27T03:07:35.892Z,99.90
2018-09-27T03:10:04.306Z,99.90
2018-09-27T03:12:32.544Z,99.90
2018-09-27T03:15:00.726Z,99.90
2018-09-27T03:17:28.905Z,99.90
2018-09-27T03:19:57.104Z,99.90
2018-09-27T03:22:25.270Z,99.90
2018-09-27T03:24:53.545Z,99.90
2018-09-27T03:27:21.729Z,99.90
2018-09-27T03:29:49.964Z,99.90
2018-09-27T03:32:18.156Z,99.90
2018-09-27T03:34:46.348Z,99.90
2018-09-27T03:37:14.556Z,99.90
2018-09-27T03:39:42.826Z,99.90
2018-09-27T03:42:11.065Z,99.90
2018-09-27T03:44:39.246Z,99.90
2018-09-27T03:47:07.479Z,99.90
2018-09-27T03:49:35.697Z,99.90
2018-09-27T03:52:03.905Z,99.90
2018-09-27T03:54:32.089Z,99.90
2018-09-27T03:57:00.265Z,99.90
2018-09-27T03:59:28.446Z,99.90
2018-09-27T04:01:56.676Z,99.90
2018-09-27T04:04:24.981Z,99.90
2018-09-27T04:06:53.174Z,99.90
2018-09-27T04:09:21.361Z,99.90
2018-09-27T04:11:49.547Z,99.90
2018-09-27T04:14:17.789Z,99.90
2018-09-27T04:16:45.964Z,99.90
2018-09-27T04:19:14.208Z,99.90
2018-09-27T04:21:42.409Z,99.90
2018-09-27T04:24:10.614Z,99.90
2018-09-27T04:26:38.809Z,99.90
2018-09-27T04:29:06.982Z,99.90
2018-09-27T04:31:35.736Z,99.90
2018-09-27T04:34:03.892Z,99.90
2018-09-27T04:36:32.106Z,99.90
2018-09-27T04:39:00.291Z,99.90
2018-09-27T04:41:28.492Z,99.90
2018-09-27T04:43:56.659Z,99.90
2018-09-27T04:46:24.866Z,99.90
2018-09-27T04:48:53.054Z,99.90
2018-09-27T04:51:21.241Z,99.90
2018-09-27T04:53:49.417Z,99.90
2018-09-27T04:56:17.599Z,99.90
2018-09-27T04:58:45.804Z,99.90
2018-09-27T05:01:14.009Z,99.90
2018-09-27T05:03:42.286Z,99.90
2018-09-27T05:06:10.391Z,99.90
2018-09-27T05:08:38.569Z,99.90
2018-09-27T05:11:06.737Z,99.90
2018-09-27T05:13:34.926Z,99.90
2018-09-27T05:16:03.198Z,99.90
2018-09-27T05:18:31.337Z,99.90
2018-09-27T05:20:59.531Z,99.90
2018-09-27T05:23:27.790Z,99.90
2018-09-27T05:25:56.004Z,99.90
2018-09-27T05:28:24.193Z,99.90
2018-09-27T05:30:52.400Z,99.90
2018-09-27T05:33:20.593Z,99.90
2018-09-27T05:35:48.845Z,99.90
2018-09-27T05:38:17.061Z,99.90
2018-09-27T05:40:45.246Z,99.90
2018-09-27T05:43:13.438Z,99.90
2018-09-27T05:45:41.766Z,99.90
2018-09-27T05:48:09.848Z,99.90
2018-09-27T05:50:38.172Z,99.90
2018-09-27T05:53:06.517Z,99.90
2018-09-27T05:55:34.703Z,99.90
2018-09-27T05:58:02.884Z,99.90
2018-09-27T06:00:31.072Z,99.90
2018-09-27T06:02:59.315Z,99.90
2018-09-27T06:05:27.492Z,99.90
2018-09-27T06:07:55.661Z,99.90
2018-09-27T06:10:23.937Z,99.90
2018-09-27T06:12:52.100Z,99.90
2018-09-27T06:15:20.320Z,99.90
2018-09-27T06:17:48.577Z,99.90
2018-09-27T06:20:16.767Z,99.90
2018-09-27T06:22:44.961Z,99.90
2018-09-27T06:25:13.137Z,99.90
2018-09-27T06:27:41.345Z,99.90
2018-09-27T06:30:09.501Z,99.90
2018-09-27T06:32:37.712Z,99.90
2018-09-27T06:35:05.949Z,99.90
2018-09-27T06:37:34.066Z,99.90
2018-09-27T06:40:02.303Z,99.90
2018-09-27T06:42:30.562Z,99.90
2018-09-27T06:44:58.736Z,99.90
2018-09-27T06:47:26.874Z,99.90
2018-09-27T06:49:55.082Z,99.90
2018-09-27T06:52:23.236Z,99.90
2018-09-27T06:54:51.525Z,99.90
2018-09-27T06:57:19.702Z,99.90
2018-09-27T06:59:47.884Z,99.90
2018-09-27T07:02:16.081Z,99.90
2018-09-27T07:04:44.321Z,99.90
2018-09-27T07:07:12.473Z,99.90
2018-09-27T07:09:40.657Z,99.90
2018-09-27T07:12:08.899Z,99.90
2018-09-27T07:14:37.122Z,99.90
2018-09-27T07:17:05.235Z,99.90
2018-09-27T07:19:33.553Z,99.90
2018-09-27T07:22:01.776Z,99.90
2018-09-27T07:24:29.975Z,99.90
2018-09-27T07:26:58.194Z,99.90
2018-09-27T07:29:26.329Z,99.90
2018-09-27T07:31:54.527Z,99.90
2018-09-27T07:34:22.748Z,99.90
2018-09-27T07:36:50.914Z,99.90
2018-09-27T07:39:19.145Z,99.90
2018-09-27T07:41:47.332Z,99.90
2018-09-27T07:44:15.533Z,99.90
2018-09-27T07:46:43.881Z,99.90
2018-09-27T07:49:12.064Z,99.90
2018-09-27T07:51:40.267Z,99.90
2018-09-27T07:54:08.513Z,99.90
2018-09-27T07:56:36.716Z,99.10
2018-09-27T07:59:04.890Z,99.70
2018-09-27T08:01:33.083Z,99.70
2018-09-27T08:04:01.381Z,99.90
2018-09-27T08:06:29.432Z,99.90
2018-09-27T08:08:57.650Z,99.10
2018-09-27T08:11:25.882Z,97.90
2018-09-27T08:13:54.036Z,98.70
2018-09-27T08:16:22.244Z,98.70
2018-09-27T08:18:50.456Z,98.60
2018-09-27T08:21:18.865Z,97.50
2018-09-27T08:23:46.880Z,97.10
2018-09-27T08:26:15.072Z,96.60
2018-09-27T08:28:43.272Z,95.10
2018-09-27T08:31:11.517Z,94.20
2018-09-27T08:33:39.726Z,94.10
2018-09-27T08:36:08.043Z,93.50
2018-09-27T08:38:36.266Z,93.90
2018-09-27T08:41:04.416Z,93.90
2018-09-27T08:43:32.619Z,94.20
2018-09-27T08:46:00.802Z,93.40
2018-09-27T08:48:28.967Z,93.50
2018-09-27T08:50:57.140Z,94.10
2018-09-27T08:53:25.320Z,93.40
2018-09-27T08:55:53.535Z,92.80
2018-09-27T08:58:21.694Z,92.40
2018-09-27T09:00:49.903Z,93.70
2018-09-27T09:03:18.106Z,94.20
2018-09-27T09:05:46.304Z,92.80
2018-09-27T09:08:14.729Z,91.40
2018-09-27T09:10:42.922Z,90.50
2018-09-27T09:13:11.153Z,86.00
2018-09-27T09:15:39.325Z,85.80
2018-09-27T09:18:07.574Z,84.50
2018-09-27T09:20:35.745Z,86.70
2018-09-27T09:23:03.909Z,86.90
2018-09-27T09:25:32.100Z,90.50
2018-09-27T09:28:00.298Z,87.20
2018-09-27T09:30:28.501Z,82.40
2018-09-27T09:32:56.677Z,80.50
2018-09-27T09:35:24.938Z,79.60
2018-09-27T09:37:53.086Z,81.70
2018-09-27T09:40:21.299Z,78.00
2018-09-27T09:42:49.484Z,73.10
2018-09-27T09:45:17.727Z,71.30
2018-09-27T09:47:45.922Z,69.30
2018-09-27T09:50:14.127Z,64.40
2018-09-27T09:52:42.321Z,61.20
2018-09-27T09:55:10.530Z,58.20
2018-09-27T09:57:38.705Z,58.90
2018-09-27T10:00:06.932Z,57.70
2018-09-27T10:02:35.180Z,58.50
2018-09-27T10:05:03.296Z,57.50
2018-09-27T10:07:31.472Z,58.80
2018-09-27T10:09:59.768Z,57.80
2018-09-27T10:12:27.967Z,54.10
2018-09-27T10:14:56.153Z,51.70
2018-09-27T10:17:24.331Z,50.40
2018-09-27T10:19:52.519Z,49.10
2018-09-27T10:22:20.738Z,47.50
2018-09-27T10:24:49.028Z,46.00
2018-09-27T10:27:17.241Z,44.00
2018-09-27T10:29:45.378Z,43.50
2018-09-27T10:32:13.577Z,43.30
2018-09-27T10:34:42.009Z,43.80
2018-09-27T10:37:10.233Z,48.00
2018-09-27T10:39:38.429Z,50.80
2018-09-27T10:42:06.658Z,50.60
2018-09-27T10:44:34.841Z,50.10
2018-09-27T10:47:03.645Z,49.20
2018-09-27T10:49:31.834Z,51.90
2018-09-27T10:52:00.019Z,48.30
2018-09-27T10:54:28.268Z,46.80
2018-09-27T10:56:56.493Z,48.80
2018-09-27T10:59:24.741Z,46.50
2018-09-27T11:01:52.940Z,45.60
2018-09-27T11:04:21.128Z,46.60
2018-09-27T11:06:49.329Z,47.50
2018-09-27T11:09:17.542Z,43.60
2018-09-27T11:11:45.748Z,42.90
2018-09-27T11:14:13.993Z,39.20
2018-09-27T11:16:42.319Z,39.00
2018-09-27T11:19:10.467Z,39.40
2018-09-27T11:21:38.712Z,39.80
2018-09-27T11:24:06.924Z,40.20
2018-09-27T11:26:35.150Z,41.80
2018-09-27T11:29:08.885Z,41.10
2018-09-27T11:31:42.504Z,37.80
2018-09-27T11:34:10.684Z,36.80
2018-09-27T11:36:38.909Z,35.60
2018-09-27T11:39:08.512Z,33.50
2018-09-27T11:41:36.700Z,34.20
2018-09-27T11:44:05.154Z,33.70
2018-09-27T11:46:33.260Z,39.00
2018-09-27T11:49:01.524Z,40.70
2018-09-27T11:51:29.698Z,38.30
2018-09-27T11:53:57.869Z,35.10
2018-09-27T11:56:26.049Z,34.70
2018-09-27T11:58:54.290Z,35.60
2018-09-27T12:01:22.470Z,37.50
2018-09-27T12:03:50.671Z,38.30
2018-09-27T12:06:18.851Z,41.00
2018-09-27T12:08:47.062Z,39.00
2018-09-27T12:11:15.229Z,36.40
2018-09-27T12:13:45.702Z,37.00
2018-09-27T12:16:14.520Z,36.60
2018-09-27T12:18:42.786Z,34.00
2018-09-27T12:21:11.375Z,33.00
2018-09-27T12:23:39.584Z,33.20
2018-09-27T12:26:08.015Z,33.70
2018-09-27T12:28:36.314Z,33.40
2018-09-27T12:31:04.436Z,37.40
2018-09-27T12:33:32.620Z,34.50
2018-09-27T12:36:00.883Z,32.60
2018-09-27T12:38:29.154Z,32.40
2018-09-27T12:40:57.280Z,35.90
2018-09-27T12:43:25.490Z,38.40
2018-09-27T12:45:53.683Z,39.40
2018-09-27T12:48:21.883Z,36.50
2018-09-27T12:50:50.115Z,33.40
2018-09-27T12:53:18.331Z,33.70
2018-09-27T12:55:46.457Z,36.30
2018-09-27T12:58:14.645Z,38.20
2018-09-27T13:00:42.864Z,37.70
2018-09-27T13:03:11.182Z,36.50
2018-09-27T13:05:39.532Z,38.00
2018-09-27T13:08:08.248Z,34.10
2018-09-27T13:10:36.418Z,35.40
2018-09-27T13:13:04.756Z,35.90
2018-09-27T13:15:32.920Z,37.50
2018-09-27T13:18:01.109Z,39.20
2018-09-27T13:20:29.333Z,34.10
2018-09-27T13:22:57.536Z,33.20
2018-09-27T13:25:25.740Z,33.60
2018-09-27T13:27:53.911Z,37.70
2018-09-27T13:30:22.096Z,37.20
2018-09-27T13:32:50.282Z,37.00
2018-09-27T13:35:18.457Z,37.10
2018-09-27T13:37:46.644Z,37.50
2018-09-27T13:40:14.829Z,36.50
2018-09-27T13:42:43.028Z,36.70
2018-09-27T13:45:11.358Z,37.40
2018-09-27T13:47:39.489Z,35.40
2018-09-27T13:50:07.671Z,35.30
2018-09-27T13:52:35.860Z,35.70
2018-09-27T13:55:04.063Z,37.00
2018-09-27T13:57:32.265Z,35.50
2018-09-27T14:00:00.433Z,35.90
2018-09-27T14:02:28.769Z,36.90
2018-09-27T14:04:56.954Z,36.00
2018-09-27T14:07:25.141Z,36.90
2018-09-27T14:09:53.323Z,36.80
2018-09-27T14:12:21.547Z,37.50
2018-09-27T14:14:49.751Z,36.00
2018-09-27T14:17:17.968Z,36.30
2018-09-27T14:19:46.132Z,35.70
2018-09-27T14:22:14.350Z,36.20
2018-09-27T14:24:42.618Z,37.10
2018-09-27T14:27:11.017Z,38.40
2018-09-27T14:29:39.224Z,39.10
2018-09-27T14:32:07.462Z,40.50
2018-09-27T14:34:35.604Z,41.80
2018-09-27T14:37:03.769Z,43.10
2018-09-27T14:39:32.008Z,39.40
2018-09-27T14:42:00.214Z,38.30
2018-09-27T14:44:28.440Z,38.30
2018-09-27T14:46:56.681Z,38.10
2018-09-27T14:49:24.996Z,38.20
2018-09-27T14:51:53.318Z,40.70
2018-09-27T14:54:21.536Z,40.50
2018-09-27T14:56:50.028Z,40.10
2018-09-27T14:59:18.240Z,39.80
2018-09-27T15:01:46.498Z,39.00
2018-09-27T15:04:14.737Z,39.00
2018-09-27T15:06:42.963Z,39.70
2018-09-27T15:09:11.997Z,39.00
2018-09-27T15:11:40.131Z,39.20
2018-09-27T15:14:08.695Z,39.50
2018-09-27T15:16:37.250Z,39.50
2018-09-27T15:19:05.489Z,40.10
2018-09-27T15:21:33.661Z,40.20
2018-09-27T15:24:02.313Z,40.10
2018-09-27T15:26:30.609Z,40.10
2018-09-27T15:28:58.785Z,40.70
2018-09-27T15:31:26.981Z,41.30
2018-09-27T15:33:55.157Z,42.10
2018-09-27T15:36:23.440Z,42.50
2018-09-27T15:38:51.547Z,43.50
2018-09-27T15:41:19.756Z,43.90
2018-09-27T15:43:48.108Z,44.50
2018-09-27T15:46:16.282Z,44.30
2018-09-27T15:48:44.469Z,44.40
2018-09-27T15:51:12.730Z,44.80
2018-09-27T15:53:40.938Z,45.40
2018-09-27T15:56:09.180Z,45.00
2018-09-27T15:58:37.344Z,45.00
2018-09-27T16:01:05.549Z,45.10
2018-09-27T16:03:33.713Z,45.20
2018-09-27T16:06:01.889Z,44.40
2018-09-27T16:08:30.061Z,44.90
2018-09-27T16:10:58.264Z,44.30
2018-09-27T16:13:26.494Z,44.50
2018-09-27T16:15:54.713Z,44.80
2018-09-27T16:18:22.909Z,44.60
2018-09-27T16:20:51.073Z,44.70
2018-09-27T16:23:19.273Z,45.30
2018-09-27T16:25:47.429Z,46.40
2018-09-27T16:28:15.615Z,46.30
2018-09-27T16:30:43.856Z,46.50
2018-09-27T16:33:12.036Z,46.70
2018-09-27T16:35:40.288Z,47.00
2018-09-27T16:38:08.512Z,47.00
2018-09-27T16:40:36.734Z,47.50
2018-09-27T16:43:04.905Z,47.60
2018-09-27T16:45:33.111Z,48.00
2018-09-27T16:48:01.298Z,48.10
2018-09-27T16:50:29.473Z,48.10
2018-09-27T16:52:57.629Z,48.60
2018-09-27T16:55:25.816Z,48.90
2018-09-27T16:57:53.989Z,48.80
2018-09-27T17:00:22.180Z,50.00
2018-09-27T17:02:50.373Z,49.50
2018-09-27T17:05:18.608Z,49.70
2018-09-27T17:07:46.786Z,53.90
2018-09-27T17:10:14.990Z,52.00
2018-09-27T17:12:43.163Z,53.60
2018-09-27T17:15:11.337Z,54.30
2018-09-27T17:17:39.540Z,53.10
2018-09-27T17:20:07.727Z,54.40
2018-09-27T17:22:36.003Z,55.30
2018-09-27T17:25:04.210Z,54.90
2018-09-27T17:27:32.390Z,57.70
2018-09-27T17:30:00.569Z,59.10
2018-09-27T17:32:28.759Z,59.70
2018-09-27T17:34:56.982Z,60.10
2018-09-27T17:37:25.201Z,60.10
2018-09-27T17:39:53.401Z,61.40
2018-09-27T17:42:21.628Z,62.90
2018-09-27T17:44:49.840Z,62.90
2018-09-27T17:47:18.049Z,67.30
2018-09-27T17:49:46.275Z,66.50
2018-09-27T17:52:14.449Z,69.10
2018-09-27T17:54:42.616Z,70.80
2018-09-27T17:57:10.838Z,72.80
2018-09-27T17:59:39.088Z,75.60
2018-09-27T18:02:07.276Z,82.10
2018-09-27T18:04:35.562Z,90.50
2018-09-27T18:07:03.777Z,95.20
2018-09-27T18:09:31.933Z,95.70
2018-09-27T18:12:00.149Z,99.80
2018-09-27T18:14:28.349Z,99.90
2018-09-27T18:16:56.547Z,99.90
2018-09-27T18:19:24.959Z,99.90
2018-09-27T18:21:53.113Z,99.90
2018-09-27T18:24:21.260Z,99.90
2018-09-27T18:26:49.494Z,99.90
2018-09-27T18:29:17.802Z,99.90
2018-09-27T18:31:45.985Z,99.90
2018-09-27T18:34:14.184Z,99.90
2018-09-27T18:36:42.448Z,99.90
2018-09-27T18:39:12.390Z,99.90
2018-09-27T18:41:40.677Z,99.90
2018-09-27T18:44:09.426Z,99.90
2018-09-27T18:46:37.664Z,99.90
2018-09-27T18:49:06.373Z,99.90
2018-09-27T18:51:34.627Z,99.90
2018-09-27T18:54:02.849Z,99.90
2018-09-27T18:56:31.031Z,99.90
2018-09-27T18:58:59.224Z,99.90
2018-09-27T19:01:27.439Z,99.90
2018-09-27T19:03:55.701Z,99.90
2018-09-27T19:06:23.886Z,99.90
2018-09-27T19:08:52.189Z,99.90
2018-09-27T19:11:20.390Z,99.90
2018-09-27T19:13:48.650Z,99.90
2018-09-27T19:16:16.844Z,99.90
2018-09-27T19:18:46.056Z,99.90
2018-09-27T19:21:14.301Z,99.90
2018-09-27T19:23:42.502Z,99.90
2018-09-27T19:26:10.836Z,99.90
2018-09-27T19:28:39.194Z,99.90
2018-09-27T19:31:07.367Z,99.90
2018-09-27T19:33:35.557Z,99.90
2018-09-27T19:36:03.765Z,99.90
2018-09-27T19:38:31.945Z,99.90
2018-09-27T19:41:00.170Z,99.90
2018-09-27T19:43:28.342Z,99.90
2018-09-27T19:45:56.518Z,99.90
2018-09-27T19:48:24.693Z,99.90
2018-09-27T19:50:52.911Z,99.90
2018-09-27T19:53:21.245Z,99.90
2018-09-27T19:55:49.522Z,99.90
2018-09-27T19:58:17.734Z,99.90
2018-09-27T20:00:45.914Z,99.90
2018-09-27T20:03:14.096Z,99.90
2018-09-27T20:05:42.258Z,99.90
2018-09-27T20:08:10.609Z,99.90
2018-09-27T20:10:38.916Z,99.90
2018-09-27T20:13:07.052Z,99.90
2018-09-27T20:15:35.308Z,99.90
2018-09-27T20:18:03.497Z,99.90
2018-09-27T20:20:31.701Z,99.90
2018-09-27T20:23:00.106Z,99.90
2018-09-27T20:25:28.160Z,99.90
2018-09-27T20:27:56.360Z,99.90
2018-09-27T20:30:24.545Z,99.90
2018-09-27T20:32:52.725Z,99.90
2018-09-27T20:35:20.947Z,99.90
2018-09-27T20:37:49.118Z,99.90
2018-09-27T20:40:17.346Z,99.90
2018-09-27T20:42:45.534Z,99.90
2018-09-27T20:45:13.722Z,99.90
2018-09-27T20:47:41.891Z,99.90
2018-09-27T20:50:10.365Z,99.90
2018-09-27T20:52:38.569Z,99.90
2018-09-27T20:55:06.844Z,99.90
2018-09-27T20:57:34.996Z,99.90
2018-09-27T21:00:03.224Z,99.90
2018-09-27T21:02:31.697Z,99.90
2018-09-27T21:04:59.933Z,99.90
2018-09-27T21:07:28.138Z,99.90
2018-09-27T21:09:56.553Z,99.90
2018-09-27T21:12:24.728Z,99.90
2018-09-27T21:14:52.897Z,99.90
2018-09-27T21:17:21.172Z,99.90
2018-09-27T21:19:49.350Z,99.90
2018-09-27T21:22:17.526Z,99.90
2018-09-27T21:24:45.693Z,99.90
2018-09-27T21:27:13.873Z,99.90
2018-09-27T21:29:42.204Z,99.90
2018-09-27T21:32:10.473Z,99.90
2018-09-27T21:34:38.675Z,99.90
2018-09-27T21:37:06.917Z,99.90
2018-09-27T21:39:35.078Z,99.90
2018-09-27T21:42:03.308Z,99.90
2018-09-27T21:44:31.629Z,99.90
2018-09-27T21:46:59.809Z,99.90
2018-09-27T21:49:27.987Z,99.90
2018-09-27T21:51:56.397Z,99.90
2018-09-27T21:54:24.588Z,99.90
2018-09-27T21:56:52.770Z,99.90
2018-09-27T21:59:20.949Z,99.90
2018-09-27T22:01:49.117Z,99.90
2018-09-27T22:04:17.320Z,99.90
2018-09-27T22:06:46.648Z,99.90
2018-09-27T22:09:14.890Z,99.90
2018-09-27T22:11:43.076Z,99.90
2018-09-27T22:14:11.232Z,99.90
2018-09-27T22:16:39.448Z,99.90
2018-09-27T22:19:07.639Z,99.90
2018-09-27T22:21:35.860Z,99.90
2018-09-27T22:24:04.022Z,99.90
2018-09-27T22:26:32.234Z,99.90
2018-09-27T22:29:00.435Z,99.90
2018-09-27T22:31:28.627Z,99.90
2018-09-27T22:33:56.833Z,99.90
2018-09-27T22:36:25.261Z,99.90
2018-09-27T22:38:53.639Z,99.90
2018-09-27T22:41:21.876Z,99.90
2018-09-27T22:43:50.072Z,99.90
2018-09-27T22:46:18.300Z,99.90
2018-09-27T22:48:46.476Z,99.90
2018-09-27T22:51:14.713Z,99.90
2018-09-27T22:53:42.918Z,99.90
2018-09-27T22:56:11.081Z,99.90
2018-09-27T22:58:39.305Z,99.90
2018-09-27T23:01:07.778Z,99.90
2018-09-27T23:03:35.957Z,99.90
2018-09-27T23:06:04.112Z,99.90
2018-09-27T23:08:32.286Z,99.90
2018-09-27T23:11:00.460Z,99.90
2018-09-27T23:13:28.652Z,99.90
2018-09-27T23:15:56.827Z,99.90
2018-09-27T23:18:25.006Z,99.90
2018-09-27T23:20:53.176Z,99.90
2018-09-27T23:23:22.328Z,99.90
2018-09-27T23:25:50.567Z,99.90
2018-09-27T23:28:18.700Z,99.90
2018-09-27T23:30:46.867Z,99.90
2018-09-27T23:33:15.049Z,99.90
2018-09-27T23:35:43.281Z,99.90
2018-09-27T23:38:11.482Z,99.90
2018-09-27T23:40:39.677Z,99.90
2018-09-27T23:43:08.112Z,99.90
2018-09-27T23:45:36.289Z,99.90
2018-09-27T23:48:04.502Z,99.90
2018-09-27T23:50:32.692Z,99.90
2018-09-27T23:53:00.873Z,99.90
2018-09-27T23:55:29.053Z,99.90
2018-09-27T23:57:57.229Z,99.90
